createdAt,value
2018-04-16T00:01:43.851Z,28.73
2018-04-16T00:04:09.750Z,30.70
2018-04-16T00:06:35.610Z,30.07
2018-04-16T00:09:01.504Z,33.50
2018-04-16T00:11:27.361Z,34.87
2018-04-16T00:13:53.208Z,30.77
2018-04-16T00:16:19.092Z,27.50
2018-04-16T00:18:44.934Z,27.63
2018-04-16T00:21:10.801Z,29.90
2018-04-16T00:23:36.693Z,28.67
2018-04-16T00:26:02.558Z,32.43
2018-04-16T00:28:28.410Z,31.17
2018-04-16T00:30:54.254Z,31.77
2018-04-16T00:33:26.059Z,31.90
2018-04-16T00:38:59.987Z,31.17
2018-04-16T00:41:32.148Z,28.20
2018-04-16T00:44:03.963Z,30.37
2018-04-16T00:46:35.889Z,26.23
2018-04-16T00:49:07.871Z,29.80
2018-04-16T00:51:40.726Z,27.57
2018-04-16T00:54:22.913Z,26.67
2018-04-16T00:56:54.811Z,27.90
2018-04-16T00:59:26.840Z,31.57
2018-04-16T01:01:58.769Z,27.63
2018-04-16T01:04:30.589Z,29.27
2018-04-16T01:07:03.308Z,33.07
2018-04-16T01:09:35.375Z,29.47
2018-04-16T01:12:07.320Z,28.47
2018-04-16T01:14:39.207Z,32.73
2018-04-16T01:17:11.068Z,31.90
2018-04-16T01:19:42.911Z,30.13
2018-04-16T01:22:14.837Z,30.43
2018-04-16T01:24:46.929Z,32.97
2018-04-16T01:27:19.045Z,34.70
2018-04-16T01:29:50.862Z,36.00
2018-04-16T01:32:22.886Z,31.90
2018-04-16T01:34:54.718Z,30.07
2018-04-16T01:37:26.636Z,36.93
2018-04-16T01:39:58.653Z,40.73
2018-04-16T01:42:30.790Z,33.03
2018-04-16T01:45:02.651Z,34.03
2018-04-16T01:47:34.633Z,36.67
2018-04-16T01:50:06.624Z,37.87
2018-04-16T01:52:38.547Z,38.80
2018-04-16T01:55:10.566Z,33.97
2018-04-16T01:57:42.515Z,35.33
2018-04-16T02:00:14.655Z,34.80
2018-04-16T02:02:46.669Z,40.50
2018-04-16T02:05:18.588Z,36.03
2018-04-16T02:07:50.412Z,36.00
2018-04-16T02:10:22.348Z,42.53
2018-04-16T02:12:54.427Z,35.20
2018-04-16T02:15:26.290Z,37.53
2018-04-16T02:17:58.175Z,37.63
2018-04-16T02:20:30.166Z,33.37
2018-04-16T02:23:02.225Z,43.20
2018-04-16T02:25:34.235Z,40.27
2018-04-16T02:28:06.057Z,37.07
2018-04-16T02:30:38.077Z,34.47
2018-04-16T02:33:09.931Z,34.20
2018-04-16T02:35:41.851Z,35.47
2018-04-16T02:38:13.795Z,41.47
2018-04-16T02:40:45.620Z,38.63
2018-04-16T02:43:17.521Z,44.97
2018-04-16T02:45:49.368Z,39.50
2018-04-16T02:48:21.351Z,40.70
2018-04-16T02:50:53.416Z,41.50
2018-04-16T02:53:25.278Z,41.50
2018-04-16T02:55:57.275Z,39.60
2018-04-16T02:58:29.200Z,36.77
2018-04-16T03:01:01.303Z,36.63
2018-04-16T03:03:33.463Z,34.63
2018-04-16T03:06:05.528Z,41.40
2018-04-16T03:08:37.663Z,38.57
2018-04-16T03:11:09.694Z,37.70
2018-04-16T03:13:41.847Z,40.53
2018-04-16T03:16:13.867Z,44.20
2018-04-16T03:18:45.944Z,43.27
2018-04-16T03:21:17.899Z,41.10
2018-04-16T03:23:49.742Z,41.83
2018-04-16T03:29:23.518Z,38.43
2018-04-16T03:31:55.410Z,36.00
2018-04-16T03:34:27.245Z,34.00
2018-04-16T03:36:59.199Z,36.73
2018-04-16T03:39:31.027Z,39.63
2018-04-16T03:42:03.023Z,36.60
2018-04-16T03:44:35.056Z,37.23
2018-04-16T03:47:06.959Z,35.77
2018-04-16T03:49:38.841Z,38.83
2018-04-16T03:52:11.745Z,37.33
2018-04-16T03:54:37.591Z,37.13
2018-04-16T03:57:03.459Z,39.37
2018-04-16T03:59:29.327Z,35.87
2018-04-16T04:01:55.191Z,37.87
2018-04-16T04:04:21.044Z,37.40
2018-04-16T04:06:46.896Z,40.50
2018-04-16T04:09:12.746Z,39.93
2018-04-16T04:11:38.603Z,36.60
2018-04-16T04:14:04.426Z,36.13
2018-04-16T04:16:30.292Z,43.50
2018-04-16T04:18:56.174Z,38.53
2018-04-16T04:21:22.056Z,41.37
2018-04-16T04:24:00.278Z,37.87
2018-04-16T04:26:38.360Z,39.87
2018-04-16T04:32:08.394Z,38.83
2018-04-16T04:34:34.245Z,40.13
2018-04-16T04:37:00.078Z,39.40
2018-04-16T04:39:25.935Z,37.67
2018-04-16T04:41:51.797Z,44.43
2018-04-16T04:44:17.678Z,43.17
2018-04-16T04:46:43.512Z,41.83
2018-04-16T04:49:09.411Z,41.67
2018-04-16T04:51:35.252Z,44.27
2018-04-16T04:54:01.123Z,47.87
2018-04-16T04:56:26.969Z,50.33
2018-04-16T04:58:52.819Z,57.73
2018-04-16T05:01:18.671Z,50.47
2018-04-16T05:03:44.566Z,60.93
2018-04-16T05:06:10.412Z,51.63
2018-04-16T05:08:36.271Z,47.87
2018-04-16T05:11:08.290Z,53.83
2018-04-16T05:13:34.149Z,64.90
2018-04-16T05:16:00.012Z,62.90
2018-04-16T05:18:25.848Z,62.70
2018-04-16T05:20:51.711Z,66.17
2018-04-16T05:23:17.564Z,58.87
2018-04-16T05:25:43.416Z,58.53
2018-04-16T05:28:09.285Z,62.07
2018-04-16T05:30:35.173Z,58.60
2018-04-16T05:33:01.092Z,62.27
2018-04-16T05:35:26.935Z,60.63
2018-04-16T05:37:52.793Z,64.97
2018-04-16T05:40:18.658Z,56.90
2018-04-16T05:42:44.516Z,71.90
2018-04-16T05:45:10.365Z,57.87
2018-04-16T05:47:36.211Z,61.93
2018-04-16T05:50:02.050Z,60.07
2018-04-16T05:52:27.906Z,59.33
2018-04-16T05:54:53.813Z,56.53
2018-04-16T05:57:20.076Z,64.13
2018-04-16T05:59:45.951Z,59.33
2018-04-16T06:02:11.804Z,58.67
2018-04-16T06:04:37.703Z,55.70
2018-04-16T06:07:03.548Z,57.23
2018-04-16T06:09:29.674Z,56.20
2018-04-16T06:11:55.537Z,58.53
2018-04-16T06:14:21.385Z,59.40
2018-04-16T06:16:47.234Z,58.63
2018-04-16T06:19:13.108Z,56.17
2018-04-16T06:21:38.972Z,60.83
2018-04-16T06:24:04.807Z,61.77
2018-04-16T06:26:30.669Z,59.67
2018-04-16T06:28:56.513Z,55.97
2018-04-16T06:31:22.366Z,60.37
2018-04-16T06:33:48.205Z,60.83
2018-04-16T06:36:14.852Z,60.93
2018-04-16T06:38:41.681Z,57.03
2018-04-16T06:41:07.622Z,63.93
2018-04-16T06:43:34.454Z,58.93
2018-04-16T06:46:01.290Z,51.33
2018-04-16T06:48:27.122Z,56.83
2018-04-16T06:50:53.000Z,74.23
2018-04-16T06:53:18.894Z,75.73
2018-04-16T06:55:44.766Z,71.73
2018-04-16T06:58:10.650Z,65.87
2018-04-16T07:00:36.526Z,60.07
2018-04-16T07:03:03.360Z,65.93
2018-04-16T07:05:29.225Z,62.13
2018-04-16T07:07:55.105Z,67.83
2018-04-16T07:10:20.966Z,60.93
2018-04-16T07:12:47.699Z,61.93
2018-04-16T07:15:13.615Z,61.83
2018-04-16T07:17:40.373Z,66.47
2018-04-16T07:20:06.266Z,61.00
2018-04-16T07:22:32.107Z,64.43
2018-04-16T07:24:57.987Z,71.30
2018-04-16T07:27:23.878Z,54.87
2018-04-16T07:29:49.758Z,67.50
2018-04-16T07:32:15.614Z,70.60
2018-04-16T07:34:41.470Z,60.53
2018-04-16T07:37:07.331Z,69.30
2018-04-16T07:39:33.177Z,62.63
2018-04-16T07:41:59.036Z,57.10
2018-04-16T07:44:24.881Z,58.20
2018-04-16T07:46:50.734Z,64.30
2018-04-16T07:49:16.577Z,58.63
2018-04-16T07:51:42.463Z,68.03
2018-04-16T07:54:08.311Z,67.20
2018-04-16T07:56:34.183Z,56.57
2018-04-16T07:59:00.052Z,57.40
2018-04-16T08:01:25.932Z,53.03
2018-04-16T08:03:51.773Z,54.33
2018-04-16T08:06:17.616Z,48.23
2018-04-16T08:08:43.492Z,50.23
2018-04-16T08:11:09.371Z,44.93
2018-04-16T08:13:35.272Z,44.77
2018-04-16T08:16:01.176Z,43.80
2018-04-16T08:18:26.976Z,41.17
2018-04-16T08:20:52.822Z,45.13
2018-04-16T08:23:18.702Z,40.83
2018-04-16T08:25:44.728Z,40.60
2018-04-16T08:28:10.580Z,37.63
2018-04-16T08:30:36.440Z,39.83
2018-04-16T08:33:02.279Z,39.93
2018-04-16T08:35:28.163Z,40.50
2018-04-16T08:37:54.520Z,36.50
2018-04-16T08:40:20.384Z,38.50
2018-04-16T08:42:46.902Z,38.83
2018-04-16T08:45:12.741Z,39.23
2018-04-16T08:47:38.577Z,40.70
2018-04-16T08:50:04.426Z,38.30
2018-04-16T08:52:30.295Z,39.47
2018-04-16T08:54:56.175Z,38.43
2018-04-16T08:57:22.031Z,39.23
2018-04-16T08:59:48.151Z,38.50
2018-04-16T09:02:14.032Z,36.63
2018-04-16T09:04:40.863Z,33.17
2018-04-16T09:07:06.745Z,34.33
2018-04-16T09:09:32.591Z,32.07
2018-04-16T09:11:58.445Z,35.87
2018-04-16T09:14:24.763Z,35.93
2018-04-16T09:16:50.601Z,36.13
2018-04-16T09:19:17.036Z,34.57
2018-04-16T09:21:43.413Z,35.47
2018-04-16T09:24:09.300Z,37.87
2018-04-16T09:26:35.150Z,34.17
2018-04-16T09:29:01.030Z,34.83
2018-04-16T09:31:26.916Z,33.10
2018-04-16T09:33:52.751Z,34.03
2018-04-16T09:36:19.471Z,33.13
2018-04-16T09:38:45.317Z,26.93
2018-04-16T09:41:14.386Z,27.13
2018-04-16T09:43:40.229Z,29.50
2018-04-16T09:46:06.070Z,26.77
2018-04-16T09:48:31.941Z,26.47
2018-04-16T09:50:58.420Z,28.27
2018-04-16T09:53:24.282Z,26.13
2018-04-16T09:55:51.767Z,27.97
2018-04-16T09:58:17.593Z,27.57
2018-04-16T10:00:49.647Z,32.93
2018-04-16T10:03:17.291Z,29.80
2018-04-16T10:05:43.159Z,31.83
2018-04-16T10:08:09.038Z,28.93
2018-04-16T10:10:35.739Z,28.80
2018-04-16T10:13:01.628Z,33.57
2018-04-16T10:15:27.466Z,29.37
2018-04-16T10:17:54.092Z,29.93
2018-04-16T10:20:20.498Z,28.13
2018-04-16T10:22:46.351Z,29.70
2018-04-16T10:25:12.196Z,30.87
2018-04-16T10:27:38.066Z,28.77
2018-04-16T10:30:03.932Z,31.83
2018-04-16T10:32:29.803Z,28.43
2018-04-16T10:34:55.695Z,33.03
2018-04-16T10:37:21.550Z,31.07
2018-04-16T10:39:47.419Z,29.33
2018-04-16T10:42:13.275Z,34.00
2018-04-16T10:44:39.137Z,31.60
2018-04-16T10:47:04.983Z,31.13
2018-04-16T10:49:30.851Z,30.07
2018-04-16T10:51:57.439Z,30.27
2018-04-16T10:54:23.288Z,34.90
2018-04-16T10:56:49.115Z,32.27
2018-04-16T10:59:15.583Z,29.83
2018-04-16T11:01:41.438Z,31.63
2018-04-16T11:04:07.307Z,29.90
2018-04-16T11:06:33.919Z,33.37
2018-04-16T11:08:59.768Z,27.57
2018-04-16T11:11:27.247Z,28.77
2018-04-16T11:13:53.109Z,31.83
2018-04-16T11:16:18.970Z,29.50
2018-04-16T11:18:44.824Z,31.27
2018-04-16T11:21:11.255Z,32.40
2018-04-16T11:23:37.115Z,32.20
2018-04-16T11:26:02.937Z,26.47
2018-04-16T11:28:28.798Z,27.97
2018-04-16T11:30:55.467Z,27.50
2018-04-16T11:33:21.340Z,24.97
2018-04-16T11:35:47.192Z,26.90
2018-04-16T11:38:13.072Z,25.43
2018-04-16T11:40:38.922Z,25.13
2018-04-16T11:43:04.755Z,25.87
2018-04-16T11:45:30.609Z,23.03
2018-04-16T11:47:56.456Z,26.43
2018-04-16T11:50:23.082Z,24.50
2018-04-16T11:52:48.982Z,27.10
2018-04-16T11:55:15.612Z,25.20
2018-04-16T11:57:41.492Z,26.37
2018-04-16T12:00:07.381Z,26.67
2018-04-16T12:02:33.255Z,28.17
2018-04-16T12:04:59.140Z,27.13
2018-04-16T12:07:25.009Z,23.80
2018-04-16T12:09:50.846Z,25.43
2018-04-16T12:12:16.712Z,28.23
2018-04-16T12:14:42.562Z,25.23
2018-04-16T12:17:08.428Z,26.67
2018-04-16T12:19:34.274Z,27.67
2018-04-16T12:22:00.148Z,28.57
2018-04-16T12:24:26.990Z,27.60
2018-04-16T12:26:52.867Z,22.70
2018-04-16T12:29:18.729Z,24.97
2018-04-16T12:31:44.614Z,26.03
2018-04-16T12:34:16.630Z,27.37
2018-04-16T12:36:49.500Z,26.50
2018-04-16T12:39:21.632Z,26.07
2018-04-16T12:41:47.494Z,23.50
2018-04-16T12:44:13.366Z,25.57
2018-04-16T12:46:45.460Z,38.13
2018-04-16T12:49:11.307Z,30.63
2018-04-16T12:51:43.443Z,39.23
2018-04-16T12:54:15.483Z,27.53
2018-04-16T12:56:41.352Z,22.27
2018-04-16T12:59:13.479Z,22.07
2018-04-16T13:01:39.379Z,23.90
2018-04-16T13:04:11.256Z,25.53
2018-04-16T13:06:37.904Z,23.73
2018-04-16T13:09:09.835Z,26.97
2018-04-16T13:11:41.951Z,25.83
2018-04-16T13:14:07.816Z,27.10
2018-04-16T13:16:39.977Z,22.63
2018-04-16T13:19:06.931Z,23.13
2018-04-16T13:21:32.788Z,26.30
2018-04-16T13:23:58.654Z,29.83
2018-04-16T13:26:24.510Z,28.17
2018-04-16T13:28:50.365Z,28.80
2018-04-16T13:31:16.237Z,26.50
2018-04-16T13:33:42.107Z,25.30
2018-04-16T13:36:20.316Z,27.83
2018-04-16T13:38:46.178Z,25.87
2018-04-16T13:41:12.031Z,26.70
2018-04-16T13:43:37.863Z,27.50
2018-04-16T13:46:22.336Z,26.77
2018-04-16T13:48:48.184Z,22.97
2018-04-16T13:51:20.214Z,23.70
2018-04-16T13:53:46.993Z,25.80
2018-04-16T13:56:12.883Z,22.90
2018-04-16T13:58:38.737Z,22.07
2018-04-16T14:01:04.574Z,32.13
2018-04-16T14:03:30.425Z,19.50
2018-04-16T14:05:56.316Z,17.57
2018-04-16T14:08:22.162Z,18.47
2018-04-16T14:10:54.185Z,17.57
2018-04-16T14:13:26.262Z,17.67
2018-04-16T14:15:58.274Z,19.40
2018-04-16T14:18:24.152Z,19.23
2018-04-16T14:20:50.000Z,18.07
2018-04-16T14:23:15.855Z,19.10
2018-04-16T14:25:41.694Z,20.60
2018-04-16T14:28:14.664Z,24.23
2018-04-16T14:30:40.501Z,21.70
2018-04-16T14:33:06.398Z,21.50
2018-04-16T14:35:32.240Z,21.23
2018-04-16T14:37:59.008Z,21.10
2018-04-16T14:40:24.855Z,23.50
2018-04-16T14:42:50.709Z,62.47
2018-04-16T14:45:22.583Z,23.40
2018-04-16T14:47:49.375Z,20.60
2018-04-16T14:50:21.420Z,17.60
2018-04-16T14:52:48.731Z,18.47
2018-04-16T14:55:14.587Z,18.93
2018-04-16T14:57:46.635Z,18.53
2018-04-16T15:00:12.478Z,20.20
2018-04-16T15:02:38.324Z,15.70
2018-04-16T15:05:04.224Z,15.77
2018-04-16T15:07:30.135Z,15.77
2018-04-16T15:09:56.017Z,17.37
2018-04-16T15:12:27.886Z,20.60
2018-04-16T15:14:53.781Z,15.97
2018-04-16T15:17:19.621Z,12.93
2018-04-16T15:19:45.543Z,16.60
2018-04-16T15:22:11.402Z,22.53
2018-04-16T15:24:37.264Z,14.37
2018-04-16T15:27:03.198Z,10.70
2018-04-16T15:29:29.075Z,11.77
2018-04-16T15:31:54.969Z,9.57
2018-04-16T15:34:22.438Z,14.60
2018-04-16T15:36:48.293Z,10.43
2018-04-16T15:39:14.135Z,10.13
2018-04-16T15:41:39.988Z,12.27
2018-04-16T15:44:05.878Z,11.83
2018-04-16T15:46:31.723Z,12.73
2018-04-16T15:48:57.622Z,10.47
2018-04-16T15:51:23.466Z,10.67
2018-04-16T15:53:49.319Z,10.57
2018-04-16T15:56:15.193Z,9.10
2018-04-16T15:58:41.091Z,10.40
2018-04-16T16:01:06.940Z,9.13
2018-04-16T16:03:32.797Z,8.30
2018-04-16T16:05:58.667Z,7.77
2018-04-16T16:08:24.511Z,6.77
2018-04-16T16:10:50.394Z,7.67
2018-04-16T16:13:16.254Z,6.83
2018-04-16T16:15:42.105Z,8.60
2018-04-16T16:18:07.955Z,8.50
2018-04-16T16:20:34.431Z,8.43
2018-04-16T16:23:00.332Z,8.77
2018-04-16T16:25:26.197Z,8.37
2018-04-16T16:27:52.051Z,7.97
2018-04-16T16:30:17.976Z,8.00
2018-04-16T16:32:43.852Z,7.70
2018-04-16T16:35:09.853Z,8.17
2018-04-16T16:37:35.734Z,7.83
2018-04-16T16:40:01.648Z,8.30
2018-04-16T16:42:27.578Z,8.10
2018-04-16T16:44:53.789Z,7.33
2018-04-16T16:47:19.646Z,7.87
2018-04-16T16:49:45.518Z,8.00
2018-04-16T16:52:12.404Z,8.40
2018-04-16T16:54:38.251Z,9.00
2018-04-16T16:57:04.226Z,9.30
2018-04-16T16:59:33.640Z,8.57
2018-04-16T17:01:59.586Z,8.60
2018-04-16T17:04:25.490Z,8.60
2018-04-16T17:06:51.349Z,8.90
2018-04-16T17:09:18.237Z,9.00
2018-04-16T17:11:44.118Z,8.83
2018-04-16T17:14:10.162Z,7.93
2018-04-16T17:16:36.002Z,8.73
2018-04-16T17:19:01.904Z,9.13
2018-04-16T17:21:30.673Z,9.87
2018-04-16T17:23:56.565Z,9.53
2018-04-16T17:26:23.350Z,9.17
2018-04-16T17:28:49.195Z,9.33
2018-04-16T17:31:15.142Z,9.47
2018-04-16T17:33:41.774Z,9.50
2018-04-16T17:36:07.686Z,9.50
2018-04-16T17:38:33.574Z,9.70
2018-04-16T17:40:59.483Z,10.33
2018-04-16T17:43:26.352Z,9.90
2018-04-16T17:45:52.249Z,10.83
2018-04-16T17:48:18.973Z,11.40
2018-04-16T17:50:44.898Z,11.07
2018-04-16T17:53:10.828Z,10.57
2018-04-16T17:55:38.551Z,11.83
2018-04-16T17:58:04.510Z,12.50
2018-04-16T18:00:30.436Z,12.10
2018-04-16T18:02:56.315Z,11.37
2018-04-16T18:05:22.545Z,11.40
2018-04-16T18:07:48.419Z,10.80
2018-04-16T18:10:14.322Z,12.17
2018-04-16T18:12:40.263Z,12.07
2018-04-16T18:15:06.176Z,11.37
2018-04-16T18:17:32.065Z,11.27
2018-04-16T18:19:58.005Z,9.80
2018-04-16T18:22:23.919Z,9.97
2018-04-16T18:24:49.904Z,9.93
2018-04-16T18:27:15.786Z,11.20
2018-04-16T18:29:42.471Z,12.10
2018-04-16T18:32:08.501Z,10.47
2018-04-16T18:34:34.446Z,12.07
2018-04-16T18:37:00.339Z,11.33
2018-04-16T18:39:26.259Z,12.50
2018-04-16T18:41:52.177Z,9.93
2018-04-16T18:44:18.081Z,9.40
2018-04-16T18:46:45.313Z,10.13
2018-04-16T18:49:11.227Z,9.70
2018-04-16T18:51:37.086Z,9.93
2018-04-16T18:54:04.220Z,10.50
2018-04-16T18:56:30.160Z,10.93
2018-04-16T18:58:56.083Z,10.67
2018-04-16T19:01:22.025Z,11.20
2018-04-16T19:03:47.956Z,11.03
2018-04-16T19:06:14.047Z,11.73
2018-04-16T19:08:41.439Z,11.83
2018-04-16T19:11:07.284Z,11.50
2018-04-16T19:13:33.241Z,11.83
2018-04-16T19:15:59.211Z,12.10
2018-04-16T19:18:25.216Z,11.20
2018-04-16T19:20:57.271Z,11.73
2018-04-16T19:23:23.198Z,12.90
2018-04-16T19:25:50.016Z,12.53
2018-04-16T19:28:15.929Z,11.73
2018-04-16T19:30:42.731Z,11.60
2018-04-16T19:33:14.730Z,10.17
2018-04-16T19:35:40.601Z,10.70
2018-04-16T19:38:08.459Z,10.87
2018-04-16T19:40:35.433Z,10.43
2018-04-16T19:43:02.965Z,11.37
2018-04-16T19:45:28.879Z,11.27
2018-04-16T19:47:55.720Z,12.30
2018-04-16T19:50:21.719Z,10.30
2018-04-16T19:52:47.627Z,11.50
2018-04-16T19:55:14.506Z,11.70
2018-04-16T19:57:46.485Z,10.23
2018-04-16T20:00:12.437Z,11.50
2018-04-16T20:02:44.385Z,11.60
2018-04-16T20:05:10.327Z,12.67
2018-04-16T20:07:36.327Z,12.13
2018-04-16T20:10:02.282Z,11.33
2018-04-16T20:12:28.313Z,12.00
2018-04-16T20:14:54.401Z,11.80
2018-04-16T20:17:20.940Z,12.60
2018-04-16T20:19:46.855Z,12.53
2018-04-16T20:22:12.760Z,11.93
2018-04-16T20:24:38.721Z,13.27
2018-04-16T20:27:04.630Z,13.47
2018-04-16T20:29:31.247Z,13.20
2018-04-16T20:31:57.190Z,13.70
2018-04-16T20:34:23.940Z,12.97
2018-04-16T20:36:49.843Z,14.00
2018-04-16T20:39:15.747Z,13.67
2018-04-16T20:41:41.697Z,13.57
2018-04-16T20:44:08.600Z,13.67
2018-04-16T20:46:34.485Z,13.23
2018-04-16T20:49:00.375Z,13.90
2018-04-16T20:51:26.307Z,14.40
2018-04-16T20:53:52.180Z,14.27
2018-04-16T20:56:18.030Z,13.80
2018-04-16T20:58:43.859Z,14.70
2018-04-16T21:01:09.747Z,14.37
2018-04-16T21:03:35.649Z,13.67
2018-04-16T21:06:01.551Z,14.60
2018-04-16T21:08:27.414Z,15.03
2018-04-16T21:10:53.335Z,13.80
2018-04-16T21:13:19.243Z,15.43
2018-04-16T21:15:45.121Z,14.07
2018-04-16T21:18:11.568Z,14.20
2018-04-16T21:20:37.477Z,13.33
2018-04-16T21:23:03.376Z,12.20
2018-04-16T21:25:29.800Z,13.90
2018-04-16T21:27:55.678Z,12.17
2018-04-16T21:30:21.672Z,12.80
2018-04-16T21:32:47.609Z,14.03
2018-04-16T21:35:13.480Z,14.87
2018-04-16T21:37:39.318Z,13.40
2018-04-16T21:40:05.173Z,13.73
2018-04-16T21:42:31.062Z,13.40
2018-04-16T21:44:56.965Z,14.20
2018-04-16T21:47:22.799Z,14.30
2018-04-16T21:49:48.670Z,15.10
2018-04-16T21:52:14.522Z,13.77
2018-04-16T21:54:40.395Z,13.50
2018-04-16T21:57:06.252Z,14.50
2018-04-16T21:59:32.113Z,13.23
2018-04-16T22:01:57.933Z,12.50
2018-04-16T22:04:23.783Z,13.53
2018-04-16T22:06:49.656Z,14.00
2018-04-16T22:09:15.547Z,14.40
2018-04-16T22:11:41.412Z,12.70
2018-04-16T22:14:07.313Z,12.23
2018-04-16T22:16:33.192Z,12.17
2018-04-16T22:18:59.052Z,12.40
2018-04-16T22:21:24.916Z,12.10
2018-04-16T22:23:50.771Z,12.63
2018-04-16T22:26:16.642Z,12.90
2018-04-16T22:28:42.493Z,11.67
2018-04-16T22:31:08.362Z,12.13
2018-04-16T22:33:34.316Z,12.17
2018-04-16T22:36:00.132Z,12.50
2018-04-16T22:38:26.021Z,13.20
2018-04-16T22:40:51.852Z,12.53
2018-04-16T22:43:17.689Z,14.10
2018-04-16T22:45:43.551Z,12.50
2018-04-16T22:48:09.426Z,12.73
2018-04-16T22:50:35.263Z,12.57
2018-04-16T22:53:01.128Z,12.70
2018-04-16T22:55:27.013Z,13.33
2018-04-16T22:57:52.867Z,12.87
2018-04-16T23:00:18.791Z,13.73
2018-04-16T23:02:44.668Z,13.10
2018-04-16T23:05:10.526Z,13.37
2018-04-16T23:07:36.394Z,12.43
2018-04-16T23:10:02.258Z,12.87
2018-04-16T23:12:28.112Z,13.87
2018-04-16T23:14:53.969Z,13.37
2018-04-16T23:17:19.838Z,12.43
2018-04-16T23:19:45.724Z,13.53
2018-04-16T23:22:13.380Z,13.10
2018-04-16T23:24:39.256Z,12.47
2018-04-16T23:27:05.107Z,13.10
2018-04-16T23:29:30.951Z,13.00
2018-04-16T23:31:56.809Z,12.90
2018-04-16T23:34:22.653Z,13.50
2018-04-16T23:36:48.513Z,11.30
2018-04-16T23:39:14.355Z,14.20
2018-04-16T23:41:40.209Z,13.43
2018-04-16T23:44:06.064Z,13.43
2018-04-16T23:46:31.947Z,14.40
2018-04-16T23:48:57.797Z,13.93
2018-04-16T23:51:23.664Z,15.17
2018-04-16T23:53:49.506Z,13.80
2018-04-16T23:56:15.358Z,13.60
2018-04-16T23:58:41.266Z,15.47
